Time;durP1;ratioP1;P1;durP2;ratioP2;P2;SDS_P1;SDS_P2;PMS_P1;PMS_P2;Temp;Humidity;BMP_temperature;BMP_pressure;BME280_temperature;BME280_humidity;BME280_pressure;Samples;Min_cycle;Max_cycle;Signal;HPM_P1;HPM_P2
2022/10/01 00:00:23;;;;;;;15.98;9.57;;;;;;;;;;5034451;28;20037;-72
2022/10/01 00:02:49;;;;;;;14.80;9.45;;;;;;;;;;5034919;28;20045;-72
2022/10/01 00:05:15;;;;;;;13.70;9.90;;;;;;;;;;5033658;28;20504;-72
2022/10/01 00:07:43;;;;;;;16.25;10.13;;;11.80;99.90;;;;;;5018004;28;20037;-72
2022/10/01 00:10:11;;;;;;;13.75;10.02;;;11.80;99.90;;;;;;5018253;28;20430;-72
2022/10/01 00:12:38;;;;;;;11.38;9.77;;;11.80;99.90;;;;;;5034495;28;20083;-72
2022/10/01 00:15:08;;;;;;;15.80;10.18;;;11.00;99.90;;;;;;5034436;28;20044;-72
2022/10/01 00:17:37;;;;;;;17.33;10.50;;;;;;;;;;5034374;28;20053;-72
2022/10/01 00:20:04;;;;;;;14.20;10.27;;;11.70;99.90;;;;;;5034125;28;20041;-72
2022/10/01 00:22:31;;;;;;;14.20;10.88;;;11.80;99.90;;;;;;5018451;28;20473;-72
2022/10/01 00:24:58;;;;;;;14.05;9.88;;;11.80;99.90;;;;;;5017723;28;20051;-72
2022/10/01 00:27:25;;;;;;;13.48;10.60;;;11.70;99.90;;;;;;5034363;28;20044;-72
2022/10/01 00:29:51;;;;;;;15.02;10.85;;;;;;;;;;5017727;28;20029;-71
2022/10/01 00:32:17;;;;;;;12.88;10.30;;;;;;;;;;5034167;28;20052;-72
2022/10/01 00:34:43;;;;;;;16.50;11.18;;;;;;;;;;5034155;28;20084;-72
2022/10/01 00:37:09;;;;;;;16.05;10.77;;;;;;;;;;5034005;28;20041;-72
2022/10/01 00:39:36;;;;;;;17.88;11.65;;;;;;;;;;5033840;28;20473;-72
2022/10/01 00:42:03;;;;;;;15.00;11.40;;;;;;;;;;5033956;28;20409;-72
2022/10/01 00:44:36;;;;;;;13.80;10.60;;;11.70;99.90;;;;;;5017743;28;20132;-72
2022/10/01 00:47:18;;;;;;;17.30;11.43;;;11.70;99.90;;;;;;5033708;28;20171;-72
2022/10/01 00:49:46;;;;;;;14.48;10.52;;;;;;;;;;5033703;28;20114;-72
2022/10/01 00:52:14;;;;;;;16.55;10.73;;;;;;;;;;5033804;28;20051;-71
2022/10/01 00:54:49;;;;;;;16.35;11.20;;;11.80;99.90;;;;;;5033796;28;20052;-72
2022/10/01 00:57:18;;;;;;;14.23;11.18;;;;;;;;;;5017111;28;20083;-72
2022/10/01 00:59:44;;;;;;;14.20;10.20;;;;;;;;;;5033875;28;20413;-72
2022/10/01 01:02:11;;;;;;;15.32;10.80;;;;;;;;;;5033240;28;20045;-72
2022/10/01 01:04:38;;;;;;;15.23;9.65;;;;;;;;;;5033429;28;20037;-72
2022/10/01 01:07:05;;;;;;;16.02;9.85;;;;;;;;;;5033589;28;20041;-72
2022/10/01 01:09:46;;;;;;;16.42;10.23;;;;;;;;;;5033781;28;20441;-72
2022/10/01 01:12:30;;;;;;;14.23;9.10;;;11.50;99.90;;;;;;5033540;28;20159;-72
2022/10/01 01:14:56;;;;;;;12.77;9.77;;;;;;;;;;5033219;28;20120;-72
2022/10/01 01:17:46;;;;;;;15.82;9.18;;;11.70;99.90;;;;;;5028732;28;20132;-72
2022/10/01 01:20:31;;;;;;;14.30;9.13;;;11.60;99.90;;;;;;5033147;28;20521;-72
2022/10/01 01:23:05;;;;;;;13.23;9.02;;;;;;;;;;5033001;28;20120;-72
2022/10/01 01:25:44;;;;;;;11.25;8.20;;;11.60;99.90;;;;;;5032973;28;20038;-72
2022/10/01 01:28:10;;;;;;;12.65;8.20;;;;;;;;;;5033375;28;20087;-75
2022/10/01 01:30:40;;;;;;;12.75;8.50;;;;;;;;;;5033036;28;20041;-76
2022/10/01 01:33:16;;;;;;;10.07;8.48;;;;;;;;;;5032764;28;20054;-76
2022/10/01 01:35:46;;;;;;;9.95;7.65;;;;;;;;;;5016529;28;20115;-76
2022/10/01 01:38:14;;;;;;;14.77;8.02;;;;;;;;;;5033062;28;20048;-76
2022/10/01 01:40:43;;;;;;;11.52;7.40;;;11.60;99.90;;;;;;5016375;28;20511;-76
2022/10/01 01:43:18;;;;;;;9.75;7.38;;;;;;;;;;5034253;28;20054;-75
2022/10/01 01:45:44;;;;;;;9.95;7.70;;;;;;;;;;5032537;28;20046;-76
2022/10/01 01:48:11;;;;;;;9.20;6.68;;;;;;;;;;5032676;28;20045;-75
2022/10/01 01:50:58;;;;;;;9.32;7.60;;;;;;;;;;5034093;28;20093;-75
2022/10/01 01:53:25;;;;;;;8.25;6.47;;;;;;;;;;5028824;28;20066;-75
2022/10/01 01:55:51;;;;;;;9.85;6.90;;;;;;;;;;5032620;28;20063;-75
2022/10/01 01:58:18;;;;;;;10.93;6.57;;;;;;;;;;5016088;28;20045;-75
2022/10/01 02:00:45;;;;;;;9.00;7.95;;;;;;;;;;5032709;28;20044;-75
2022/10/01 02:03:11;;;;;;;8.98;6.70;;;;;;;;;;5015938;28;20393;-74
2022/10/01 02:05:43;;;;;;;8.68;6.43;;;;;;;;;;5032185;28;20042;-75
2022/10/01 02:08:11;;;;;;;9.25;6.70;;;;;;;;;;5015663;28;20037;-74
2022/10/01 02:10:43;;;;;;;11.15;6.93;;;;;;;;;;5032741;28;20045;-74
2022/10/01 02:13:25;;;;;;;8.38;6.38;;;;;;;;;;5032492;28;20041;-74
2022/10/01 02:15:54;;;;;;;9.50;7.28;;;;;;;;;;5032230;28;20080;-74
2022/10/01 02:18:29;;;;;;;10.43;6.40;;;;;;;;;;5032135;28;20401;-74
2022/10/01 02:21:04;;;;;;;10.07;7.55;;;;;;;;;;5032484;28;20072;-74
2022/10/01 02:23:37;;;;;;;9.02;6.25;;;11.80;99.90;;;;;;5015493;28;20046;-74
2022/10/01 02:26:19;;;;;;;8.30;6.50;;;11.80;99.90;;;;;;5015742;28;20040;-73
2022/10/01 02:28:48;;;;;;;8.67;6.10;;;;;;;;;;5015465;28;20082;-74
2022/10/01 02:31:15;;;;;;;7.22;5.82;;;11.50;99.90;;;;;;5032209;28;20041;-74
2022/10/01 02:33:41;;;;;;;9.32;6.05;;;;;;;;;;5015929;28;20041;-74
2022/10/01 02:36:09;;;;;;;9.48;6.13;;;;;;;;;;5032317;28;20068;-74
2022/10/01 02:38:39;;;;;;;9.68;5.32;;;11.60;99.90;;;;;;5031796;28;20095;-74
2022/10/01 02:41:07;;;;;;;9.73;6.40;;;;;;;;;;5032089;28;20137;-74
2022/10/01 02:43:38;;;;;;;8.25;5.97;;;;;;;;;;5015228;28;20048;-74
2022/10/01 02:46:20;;;;;;;7.03;5.45;;;11.60;99.90;;;;;;5031946;28;20040;-74
2022/10/01 02:48:47;;;;;;;7.20;5.60;;;;;;;;;;5031827;28;20051;-74
2022/10/01 02:51:17;;;;;;;8.50;5.25;;;;;;;;;;5032302;28;20084;-73
2022/10/01 02:53:46;;;;;;;9.13;5.63;;;;;;;;;;5031701;28;20033;-73
2022/10/01 02:57:21;;;;;;;7.18;5.50;;;11.70;99.90;;;;;;5031844;28;20045;-74
2022/10/01 02:58:59;;;;;;;5.85;4.85;;;;;;;;;;5031375;28;20053;-73
2022/10/01 03:01:25;;;;;;;6.47;4.95;;;;;;;;;;5031538;28;20037;-73
2022/10/01 03:03:52;;;;;;;5.38;4.68;;;;;;;;;;5014994;28;20120;-73
2022/10/01 03:06:18;;;;;;;5.28;4.40;;;;;;;;;;5031825;28;20052;-73
2022/10/01 03:08:44;;;;;;;5.30;4.30;;;;;;;;;;5031517;28;20044;-73
2022/10/01 03:11:10;;;;;;;5.10;4.57;;;;;;;;;;5031809;28;20109;-73
2022/10/01 03:13:36;;;;;;;6.55;4.32;;;;;;;;;;5031574;28;20037;-73
2022/10/01 03:16:02;;;;;;;4.78;4.28;;;;;;;;;;5031689;28;20072;-73
2022/10/01 03:18:28;;;;;;;6.70;3.92;;;;;;;;;;5030869;28;20041;-73
2022/10/01 03:20:54;;;;;;;4.60;3.70;;;;;;;;;;5031339;28;20096;-73
2022/10/01 03:23:20;;;;;;;4.43;3.80;;;;;;;;;;5014974;28;20047;-73
2022/10/01 03:25:46;;;;;;;5.30;3.65;;;;;;;;;;5014629;28;20038;-73
2022/10/01 03:28:12;;;;;;;4.72;3.53;;;;;;;;;;5031420;28;20033;-73
2022/10/01 03:30:38;;;;;;;7.40;3.42;;;;;;;;;;5031807;28;20042;-74
2022/10/01 03:33:04;;;;;;;4.10;3.20;;;;;;;;;;5031341;28;20107;-73
2022/10/01 03:35:31;;;;;;;3.80;3.25;;;;;;;;;;5031281;28;20052;-74
2022/10/01 03:37:57;;;;;;;5.43;3.20;;;;;;;;;;5014939;28;20663;-74
2022/10/01 03:40:24;;;;;;;4.57;3.30;;;;;;;;;;5032127;28;20041;-73
2022/10/01 03:42:50;;;;;;;4.60;3.40;;;;;;;;;;5018338;28;20061;-74
2022/10/01 03:45:16;;;;;;;4.18;3.05;;;;;;;;;;5018679;28;20448;-74
2022/10/01 03:47:42;;;;;;;3.70;3.38;;;;;;;;;;5018654;28;20144;-74
2022/10/01 03:50:08;;;;;;;4.53;3.20;;;;;;;;;;5035630;28;20041;-73
2022/10/01 03:52:34;;;;;;;4.88;3.50;;;;;;;;;;5035818;28;20128;-74
2022/10/01 03:55:01;;;;;;;5.70;3.78;;;;;;;;;;5035511;28;20053;-74
2022/10/01 03:57:27;;;;;;;7.15;4.10;;;;;;;;;;5035696;28;20096;-73
2022/10/01 03:59:53;;;;;;;5.15;4.00;;;;;;;;;;5035665;28;20140;-74
2022/10/01 04:02:19;;;;;;;6.10;4.20;;;;;;;;;;5036172;28;20042;-74
2022/10/01 04:04:45;;;;;;;4.88;4.00;;;;;;;;;;5035754;28;20045;-74
2022/10/01 04:07:11;;;;;;;5.70;4.20;;;;;;;;;;5018177;28;20575;-73
2022/10/01 04:09:37;;;;;;;7.35;4.03;;;;;;;;;;5034449;28;20049;-73
2022/10/01 04:12:03;;;;;;;5.25;3.90;;;;;;;;;;5034448;28;20046;-73
2022/10/01 04:14:29;;;;;;;5.28;3.80;;;;;;;;;;5034429;28;20041;-73
2022/10/01 04:16:55;;;;;;;5.65;4.43;;;;;;;;;;5034501;28;20128;-73
2022/10/01 04:19:21;;;;;;;4.88;4.10;;;;;;;;;;5034194;28;20098;-73
2022/10/01 04:21:48;;;;;;;4.45;3.78;;;;;;;;;;5034442;28;20052;-73
2022/10/01 04:24:14;;;;;;;8.38;4.38;;;;;;;;;;5034307;28;20044;-73
2022/10/01 04:26:40;;;;;;;5.97;5.00;;;;;;;;;;5034493;28;20041;-73
2022/10/01 04:29:06;;;;;;;7.55;4.97;;;;;;;;;;5034151;28;20044;-73
2022/10/01 04:31:33;;;;;;;6.30;5.20;;;;;;;;;;5034145;28;20045;-73
2022/10/01 04:34:00;;;;;;;7.65;5.32;;;;;;;;;;5034074;28;20037;-73
2022/10/01 04:36:26;;;;;;;9.10;4.93;;;;;;;;;;5034537;28;20496;-74
2022/10/01 04:38:53;;;;;;;9.93;5.50;;;;;;;;;;5033983;28;20504;-73
2022/10/01 04:41:19;;;;;;;6.43;4.85;;;;;;;;;;5033686;28;20448;-73
2022/10/01 04:43:45;;;;;;;10.00;5.50;;;;;;;;;;5033822;28;20041;-74
2022/10/01 04:46:13;;;;;;;11.07;5.75;;;;;;;;;;5017647;28;20037;-73
2022/10/01 04:48:39;;;;;;;8.88;5.25;;;;;;;;;;5034204;28;20081;-74
2022/10/01 04:51:05;;;;;;;10.20;5.53;;;;;;;;;;5033903;28;20409;-73
2022/10/01 04:53:31;;;;;;;8.07;5.25;;;;;;;;;;5033702;28;20041;-74
2022/10/01 04:55:57;;;;;;;10.85;5.80;;;;;;;;;;5017504;28;20049;-73
2022/10/01 04:58:23;;;;;;;10.32;5.95;;;;;;;;;;5033828;28;20532;-74
2022/10/01 05:00:49;;;;;;;9.27;5.60;;;;;;;;;;5016801;28;20084;-73
2022/10/01 05:03:16;;;;;;;11.20;5.97;;;;;;;;;;5033781;28;20497;-75
2022/10/01 05:05:42;;;;;;;9.40;5.78;;;;;;;;;;5033572;28;20116;-74
2022/10/01 05:08:09;;;;;;;11.95;5.90;;;;;;;;;;5033489;28;20103;-74
2022/10/01 05:10:35;;;;;;;10.68;6.07;;;;;;;;;;5016875;28;20071;-74
2022/10/01 05:13:01;;;;;;;8.10;5.40;;;;;;;;;;5033182;28;20440;-73
2022/10/01 05:15:29;;;;;;;7.05;5.57;;;;;;;;;;5034525;28;20042;-73
2022/10/01 05:17:55;;;;;;;13.85;5.90;;;;;;;;;;5033474;28;20120;-73
2022/10/01 05:20:22;;;;;;;11.15;5.88;;;;;;;;;;5032075;28;20120;-74
2022/10/01 05:22:49;;;;;;;10.65;5.82;;;;;;;;;;5016235;28;20072;-74
2022/10/01 05:25:15;;;;;;;8.50;5.55;;;;;;;;;;5033183;28;20148;-74
2022/10/01 05:27:41;;;;;;;10.00;5.50;;;;;;;;;;5016630;28;20042;-74
2022/10/01 05:30:09;;;;;;;12.50;5.88;;;;;;;;;;5032029;28;20450;-74
2022/10/01 05:32:36;;;;;;;13.20;5.25;;;;;;;;;;5031542;28;20041;-74
2022/10/01 05:35:02;;;;;;;14.07;5.95;;;;;;;;;;5031765;28;20049;-73
2022/10/01 05:37:28;;;;;;;16.05;6.05;;;;;;;;;;5032911;28;20053;-74
2022/10/01 05:39:54;;;;;;;13.60;5.45;;;;;;;;;;5014918;28;20117;-74
2022/10/01 05:42:20;;;;;;;14.27;5.53;;;;;;;;;;5032243;28;20061;-73
2022/10/01 05:44:48;;;;;;;16.65;5.57;;;;;;;;;;5032742;28;20042;-74
2022/10/01 05:47:15;;;;;;;11.90;5.85;;;;;;;;;;5032906;28;20041;-74
2022/10/01 05:49:42;;;;;;;15.48;5.00;;;;;;;;;;5032899;28;20095;-73
2022/10/01 05:52:12;;;;;;;16.83;5.40;;;12.50;99.90;;;;;;5032886;28;20080;-73
2022/10/01 05:54:38;;;;;;;14.55;5.20;;;;;;;;;;5032450;28;20045;-73
2022/10/01 05:57:05;;;;;;;18.98;5.00;;;;;;;;;;5032844;28;20072;-73
2022/10/01 05:59:31;;;;;;;16.67;4.65;;;;;;;;;;5032335;28;20124;-73
2022/10/01 06:01:57;;;;;;;17.52;5.22;;;;;;;;;;5032832;28;20137;-73
2022/10/01 06:04:23;;;;;;;21.23;4.88;;;;;;;;;;5015540;28;20103;-73
2022/10/01 06:06:49;;;;;;;13.10;4.80;;;;;;;;;;5016398;28;20037;-73
2022/10/01 06:09:15;;;;;;;19.50;4.93;;;;;;;;;;5033233;28;20379;-73
2022/10/01 06:11:41;;;;;;;15.05;4.70;;;;;;;;;;5015783;28;20091;-73
2022/10/01 06:14:07;;;;;;;29.80;5.75;;;;;;;;;;5016009;28;20049;-73
2022/10/01 06:16:33;;;;;;;18.75;7.03;;;;;;;;;;5032096;28;20120;-73
2022/10/01 06:19:00;;;;;;;19.67;4.80;;;;;;;;;;5032422;28;20044;-73
2022/10/01 06:21:26;;;;;;;20.95;4.65;;;12.60;99.90;;;;;;5032468;28;20042;-73
2022/10/01 06:23:53;;;;;;;24.83;5.63;;;;;;;;;;5032478;28;20045;-73
2022/10/01 06:26:19;;;;;;;23.67;4.97;;;;;;;;;;5031642;28;20099;-73
2022/10/01 06:28:48;;;;;;;17.88;4.30;;;;;;;;;;5032348;28;20041;-73
2022/10/01 06:31:15;;;;;;;21.20;5.22;;;;;;;;;;5032205;28;20114;-73
2022/10/01 06:33:41;;;;;;;22.00;5.25;;;;;;;;;;5031871;28;20034;-74
2022/10/01 06:36:07;;;;;;;18.85;4.53;;;;;;;;;;5032302;28;20037;-76
2022/10/01 06:38:33;;;;;;;20.27;5.05;;;;;;;;;;5015534;28;20044;-73
2022/10/01 06:41:00;;;;;;;24.08;4.65;;;;;;;;;;5031171;28;20041;-74
2022/10/01 06:43:27;;;;;;;25.25;5.22;;;;;;;;;;5030846;28;20108;-74
2022/10/01 06:45:54;;;;;;;22.15;5.20;;;;;;;;;;5030829;28;20437;-74
2022/10/01 06:48:20;;;;;;;20.30;4.40;;;;;;;;;;5015373;28;20041;-74
2022/10/01 06:50:49;;;;;;;23.00;4.85;;;13.00;99.90;;;;;;5015422;28;20090;-74
2022/10/01 06:53:16;;;;;;;28.00;5.45;;;13.00;99.90;;;;;;5031791;28;20129;-73
2022/10/01 06:55:43;;;;;;;26.60;5.05;;;;;;;;;;5015095;28;20072;-73
2022/10/01 06:58:15;;;;;;;15.02;4.00;;;13.10;99.90;;;;;;5031318;28;20132;-74
2022/10/01 07:00:42;;;;;;;19.33;4.10;;;;;;;;;;5014883;28;20109;-73
2022/10/01 07:03:09;;;;;;;26.35;5.13;;;;;;;;;;5031490;28;20129;-74
2022/10/01 07:05:37;;;;;;;26.38;4.85;;;12.90;99.90;;;;;;5031127;28;20086;-76
2022/10/01 07:08:03;;;;;;;27.20;5.22;;;;;;;;;;5015008;28;20120;-74
2022/10/01 07:10:30;;;;;;;28.83;5.20;;;;;;;;;;5031908;28;20048;-74
2022/10/01 07:13:08;;;;;;;30.83;4.65;;;13.00;99.90;;;;;;4995579;28;20044;-74
2022/10/01 07:15:34;;;;;;;30.10;5.40;;;;;;;;;;5014823;28;20501;-73
2022/10/01 07:18:00;;;;;;;32.53;4.97;;;;;;;;;;5035371;28;20069;-73
2022/10/01 07:20:26;;;;;;;35.28;4.28;;;;;;;;;;5035378;28;20033;-73
2022/10/01 07:22:57;;;;;;;21.23;3.90;;;13.30;99.90;;;;;;5036287;28;20088;-74
2022/10/01 07:25:24;;;;;;;32.58;5.30;;;;;;;;;;5018897;28;20046;-73
2022/10/01 07:27:56;;;;;;;26.33;4.35;;;13.40;99.90;;;;;;5035411;28;20068;-73
2022/10/01 07:30:22;;;;;;;30.80;4.65;;;;;;;;;;5018965;28;20091;-73
2022/10/01 07:32:49;;;;;;;24.45;4.20;;;;;;;;;;5034057;28;20470;-74
2022/10/01 07:35:15;;;;;;;24.15;3.75;;;;;;;;;;5035449;28;20045;-73
2022/10/01 07:37:41;;;;;;;28.42;3.60;;;;;;;;;;5035398;28;20135;-73
2022/10/01 07:40:07;;;;;;;27.38;4.53;;;;;;;;;;5035562;28;20189;-74
2022/10/01 07:42:34;;;;;;;19.30;4.13;;;13.70;99.90;;;;;;5034392;28;20128;-73
2022/10/01 07:45:03;;;;;;;37.80;4.80;;;;;;;;;;5035170;28;20352;-74
2022/10/01 07:47:30;;;;;;;28.70;3.63;;;;;;;;;;5034947;28;20046;-74
2022/10/01 07:49:56;;;;;;;23.60;4.82;;;;;;;;;;5035417;28;20060;-74
2022/10/01 07:52:22;;;;;;;27.55;3.95;;;;;;;;;;5035068;28;20120;-73
2022/10/01 07:54:48;;;;;;;31.08;3.33;;;;;;;;;;5034846;28;20057;-73
2022/10/01 07:57:14;;;;;;;23.42;3.92;;;;;;;;;;5018265;28;20045;-73
2022/10/01 07:59:40;;;;;;;32.95;4.68;;;;;;;;;;5034774;28;20091;-73
2022/10/01 08:02:14;;;;;;;17.13;3.30;;;14.10;99.90;;;;;;5034320;28;20040;-73
2022/10/01 08:07:25;;;;;;;21.65;3.67;;;;;;;;;;5050148;28;20038;-73
2022/10/01 08:09:51;;;;;;;23.98;4.03;;;;;;;;;;5034078;28;20045;-73
2022/10/01 08:12:18;;;;;;;22.77;3.78;;;;;;;;;;5034146;28;20045;-74
2022/10/01 08:14:46;;;;;;;30.52;4.18;;;;;;;;;;5034293;28;20041;-74
2022/10/01 08:17:13;;;;;;;24.00;3.25;;;;;;;;;;5018285;28;20099;-74
2022/10/01 08:19:39;;;;;;;26.52;4.70;;;;;;;;;;5034092;28;20497;-74
2022/10/01 08:22:06;;;;;;;19.55;4.38;;;;;;;;;;5034801;28;20084;-74
2022/10/01 08:24:33;;;;;;;22.75;3.95;;;;;;;;;;5034465;28;20508;-74
2022/10/01 08:26:59;;;;;;;23.42;3.13;;;;;;;;;;5033353;28;20045;-74
2022/10/01 08:29:25;;;;;;;14.98;2.50;;;;;;;;;;5033060;28;20128;-73
2022/10/01 08:31:51;;;;;;;14.73;3.13;;;;;;;;;;5033401;28;20099;-73
2022/10/01 08:34:18;;;;;;;18.70;3.22;;;;;;;;;;5033943;28;20044;-73
2022/10/01 08:36:44;;;;;;;16.58;3.08;;;;;;;;;;5017868;28;20041;-73
2022/10/01 08:39:13;;;;;;;21.85;3.95;;;;;;;;;;5033394;28;20124;-73
2022/10/01 08:42:21;;;;;;;12.68;2.85;;;14.20;99.90;;;;;;5033268;28;20054;-73
2022/10/01 08:44:50;;;;;;;14.20;3.45;;;14.20;99.90;;;;;;5014217;28;20479;-73
2022/10/01 08:47:27;;;;;;;13.98;2.50;;;14.50;99.90;;;;;;5015650;28;20121;-73
2022/10/01 08:49:56;;;;;;;10.48;2.67;;;;;;;;;;5033663;28;20052;-73
2022/10/01 08:52:22;;;;;;;12.25;2.20;;;;;;;;;;5033930;28;20481;-73
2022/10/01 08:55:06;;;;;;;13.65;2.33;;;;;;;;;;5017017;28;20481;-73
2022/10/01 08:57:48;;;;;;;10.88;2.70;;;14.20;99.90;;;;;;5033747;28;20041;-73
2022/10/01 09:00:16;;;;;;;12.13;3.05;;;14.30;99.90;;;;;;5034003;28;20048;-73
2022/10/01 09:02:43;;;;;;;9.00;2.10;;;;;;;;;;5033739;28;20033;-73
2022/10/01 09:05:26;;;;;;;16.67;2.40;;;14.60;99.90;;;;;;5033803;28;20496;-74
2022/10/01 09:08:09;;;;;;;9.65;2.28;;;;;;;;;;5033669;28;20041;-73
2022/10/01 09:10:35;;;;;;;11.70;2.15;;;;;;;;;;5034883;28;20049;-74
2022/10/01 09:13:24;;;;;;;14.27;2.50;;;;;;;;;;5019874;28;20037;-74
2022/10/01 09:15:55;;;;;;;17.45;2.63;;;14.30;99.90;;;;;;5020646;28;20055;-73
2022/10/01 09:18:24;;;;;;;11.20;2.10;;;;;;;;;;5033719;28;20046;-74
2022/10/01 09:20:59;;;;;;;12.05;2.10;;;;;;;;;;5033476;28;20125;-74
2022/10/01 09:23:31;;;;;;;13.85;2.08;;;14.00;99.90;;;;;;5034416;28;20343;-72
2022/10/01 09:25:58;;;;;;;12.73;2.30;;;13.90;99.90;;;;;;5033158;28;20045;-73
2022/10/01 09:28:28;;;;;;;13.48;2.15;;;13.70;99.90;;;;;;5032928;28;20041;-73
2022/10/01 09:31:13;;;;;;;9.60;2.53;;;;;;;;;;5033458;28;20542;-74
2022/10/01 09:33:41;;;;;;;15.70;1.92;;;;;;;;;;5032780;28;20076;-74
2022/10/01 09:36:23;;;;;;;17.90;3.20;;;;;;;;;;5033022;28;20557;-74
2022/10/01 09:38:56;;;;;;;12.70;2.95;;;;;;;;;;5015132;28;20038;-74
2022/10/01 09:41:22;;;;;;;8.95;2.40;;;;;;;;;;5032889;28;20053;-74
2022/10/01 09:43:48;;;;;;;13.95;2.97;;;;;;;;;;5016251;28;20073;-74
2022/10/01 09:46:16;;;;;;;15.75;2.90;;;13.20;99.90;;;;;;5032900;28;20045;-74
2022/10/01 09:48:48;;;;;;;13.70;2.85;;;;;;;;;;5032658;28;20371;-74
2022/10/01 09:51:14;;;;;;;15.80;2.92;;;;;;;;;;5032922;28;20405;-73
2022/10/01 09:53:50;;;;;;;17.40;2.70;;;;;;;;;;5032479;28;20041;-73
2022/10/01 09:56:26;;;;;;;8.07;2.33;;;13.20;99.90;;;;;;5032702;28;20084;-73
2022/10/01 09:58:55;;;;;;;13.52;2.80;;;13.30;99.90;;;;;;5032634;28;20106;-73
2022/10/01 10:01:40;;;;;;;13.57;2.10;;;13.30;99.90;;;;;;5032433;28;20132;-73
2022/10/01 10:04:06;;;;;;;11.25;2.13;;;;;;;;;;5032028;28;20049;-73
2022/10/01 10:06:32;;;;;;;12.55;2.40;;;;;;;;;;5032647;28;20123;-75
2022/10/01 10:09:00;;;;;;;14.93;2.47;;;13.40;99.90;;;;;;5031967;28;20041;-76
2022/10/01 10:11:30;;;;;;;13.43;2.80;;;13.50;99.90;;;;;;5032378;28;20045;-74
2022/10/01 10:14:05;;;;;;;13.52;2.63;;;;;;;;;;5032040;28;20033;-74
2022/10/01 10:16:31;;;;;;;10.82;2.28;;;;;;;;;;5031878;28;20076;-73
2022/10/01 10:19:03;;;;;;;9.27;1.95;;;13.60;99.90;;;;;;5031111;28;20045;-73
2022/10/01 10:21:33;;;;;;;21.40;2.90;;;13.70;99.90;;;;;;5032359;28;20084;-73
2022/10/01 10:24:05;;;;;;;13.32;2.60;;;13.70;99.90;;;;;;5031958;28;20033;-74
2022/10/01 10:26:41;;;;;;;11.77;2.00;;;13.50;99.90;;;;;;5032173;28;20437;-73
2022/10/01 10:29:08;;;;;;;17.77;2.28;;;;;;;;;;5031822;28;20041;-73
2022/10/01 10:31:39;;;;;;;18.77;2.95;;;;;;;;;;5032438;28;20049;-73
2022/10/01 10:34:07;;;;;;;17.63;2.80;;;;;;;;;;5031359;28;20042;-73
2022/10/01 10:36:34;;;;;;;26.02;3.10;;;;;;;;;;5030094;28;20423;-72
2022/10/01 10:39:01;;;;;;;22.08;3.00;;;;;;;;;;5031614;28;20076;-72
2022/10/01 10:41:28;;;;;;;29.02;2.90;;;13.70;99.90;;;;;;5031100;28;20494;-72
2022/10/01 10:44:05;;;;;;;29.55;3.40;;;14.00;99.90;;;;;;5042298;28;20081;-72
2022/10/01 10:46:35;;;;;;;23.58;3.05;;;;;;;;;;5051718;28;20041;-72
2022/10/01 10:49:06;;;;;;;31.30;3.90;;;14.40;99.90;;;;;;5032436;28;20045;-72
2022/10/01 10:51:47;;;;;;;29.65;3.50;;;14.60;99.90;;;;;;5031823;28;20045;-72
2022/10/01 10:54:17;;;;;;;26.50;4.20;;;;;;;;;;5032146;28;20037;-72
2022/10/01 10:56:50;;;;;;;23.65;3.83;;;;;;;;;;5031783;28;20087;-72
2022/10/01 10:59:17;;;;;;;20.52;3.85;;;;;;;;;;5031614;28;20045;-72
2022/10/01 11:01:43;;;;;;;20.50;3.17;;;;;;;;;;5043874;28;20427;-72
2022/10/01 11:04:19;;;;;;;17.08;3.08;;;;;;;;;;5031252;28;20041;-72
2022/10/01 11:06:54;;;;;;;29.80;3.08;;;15.40;99.90;;;;;;5031575;28;20045;-72
2022/10/01 11:09:21;;;;;;;19.00;2.70;;;;;;;;;;5032912;28;20045;-72
2022/10/01 11:12:01;;;;;;;14.35;2.83;;;15.80;99.90;;;;;;5031480;28;20045;-72
2022/10/01 11:14:38;;;;;;;15.57;2.78;;;15.70;99.90;;;;;;5030673;28;20081;-71
2022/10/01 11:17:23;;;;;;;16.80;2.67;;;15.90;99.90;;;;;;5030973;28;20037;-72
2022/10/01 11:20:09;;;;;;;27.20;4.20;;;15.60;99.90;;;;;;5031158;28;20096;-71
2022/10/01 11:22:51;;;;;;;19.48;2.65;;;15.50;99.90;;;;;;5031753;28;20515;-72
2022/10/01 11:25:29;;;;;;;14.50;3.10;;;15.50;99.90;;;;;;5031483;28;20048;-71
2022/10/01 11:27:55;;;;;;;14.00;2.17;;;;;;;;;;5014912;28;20064;-71
2022/10/01 11:30:25;;;;;;;14.85;2.42;;;;;;;;;;5031463;28;20046;-71
2022/10/01 11:32:52;;;;;;;15.35;2.00;;;;;;;;;;5015381;28;20114;-72
2022/10/01 11:35:27;;;;;;;14.60;2.33;;;15.30;99.90;;;;;;5014934;28;20120;-71
2022/10/01 11:38:13;;;;;;;14.57;2.95;;;15.20;99.90;;;;;;5031471;28;20516;-72
2022/10/01 11:41:07;;;;;;;16.85;2.58;;;15.30;99.90;;;;;;5030692;28;20092;-72
2022/10/01 11:43:41;;;;;;;10.45;2.38;;;15.50;99.90;;;;;;4994815;28;20147;-70
2022/10/01 11:46:19;;;;;;;15.50;2.50;;;;;;;;;;5011448;28;20103;-71
2022/10/01 11:48:52;;;;;;;18.23;2.72;;;15.40;99.90;;;;;;5010789;28;20048;-71
2022/10/01 11:51:28;;;;;;;16.23;2.53;;;15.50;99.90;;;;;;5011316;28;20042;-72
2022/10/01 11:53:57;;;;;;;9.77;2.30;;;;;;;;;;5011618;28;20042;-71
2022/10/01 11:59:41;;;;;;;10.40;1.88;;;15.90;99.90;;;;;;5009794;28;20041;-72
2022/10/01 12:02:31;;;;;;;11.10;1.88;;;16.30;99.90;;;;;;4996338;28;20045;-72
2022/10/01 12:05:15;;;;;;;7.57;1.85;;;16.60;99.90;;;;;;5016376;28;20049;-72
2022/10/01 12:08:17;;;;;;;12.43;2.10;;;16.60;99.90;;;;;;5016552;28;20065;-72
2022/10/01 12:11:04;;;;;;;12.77;2.22;;;17.30;99.90;;;;;;5014787;28;20050;-72
2022/10/01 12:13:39;;;;;;;16.23;2.13;;;17.00;99.90;;;;;;5014814;28;20437;-71
2022/10/01 12:16:14;;;;;;;15.68;2.60;;;;;;;;;;5014855;28;20508;-72
2022/10/01 12:18:59;;;;;;;18.25;3.50;;;16.80;99.90;;;;;;5014812;28;20084;-72
2022/10/01 12:21:33;;;;;;;18.65;2.80;;;;;;;;;;5015136;28;20050;-71
2022/10/01 12:24:00;;;;;;;15.50;2.50;;;;;;;;;;5014650;28;20042;-72
2022/10/01 12:26:33;;;;;;;16.08;3.03;;;15.50;99.90;;;;;;5014536;28;20121;-72
2022/10/01 12:29:02;;;;;;;20.02;2.90;;;16.10;99.90;;;;;;5014521;28;20125;-72
2022/10/01 12:31:32;;;;;;;13.70;3.38;;;;;;;;;;5014810;28;20104;-72
2022/10/01 12:33:58;;;;;;;22.23;3.28;;;;;;;;;;5014472;28;20049;-71
2022/10/01 12:36:30;;;;;;;11.45;2.25;;;15.60;99.90;;;;;;5014087;28;20042;-71
2022/10/01 12:39:04;;;;;;;18.67;2.67;;;16.00;99.90;;;;;;5013171;28;20077;-71
2022/10/01 12:41:48;;;;;;;11.32;2.25;;;16.00;99.90;;;;;;5016933;28;20065;-72
2022/10/01 12:44:36;;;;;;;5.95;2.00;;;;;;;;;;5016861;28;20049;-72
2022/10/01 12:47:21;;;;;;;13.13;2.80;;;16.10;99.90;;;;;;5025764;28;20061;-72
2022/10/01 12:49:53;;;;;;;15.38;2.55;;;15.90;99.90;;;;;;5010191;28;20486;-72
2022/10/01 12:52:43;;;;;;;14.73;3.03;;;15.90;99.90;;;;;;5013725;28;20056;-72
2022/10/01 12:55:33;;;;;;;17.60;3.10;;;15.70;99.90;;;;;;5008548;28;20035;-72
2022/10/01 12:57:59;;;;;;;22.30;3.25;;;;;;;;;;5030052;28;20042;-72
2022/10/01 13:00:26;;;;;;;20.92;3.35;;;;;;;;;;5010899;28;20121;-72
2022/10/01 13:03:24;;;;;;;14.75;3.00;;;16.30;99.90;;;;;;4988876;28;20034;-71
2022/10/01 13:05:50;;;;;;;23.55;2.90;;;;;;;;;;4994073;28;20549;-72
2022/10/01 13:08:16;;;;;;;25.00;3.25;;;;;;;;;;4995559;28;20061;-73
2022/10/01 13:11:04;;;;;;;17.13;3.72;;;16.60;99.90;;;;;;4994561;28;20046;-72
2022/10/01 13:13:34;;;;;;;20.77;4.20;;;17.00;99.90;;;;;;4993973;28;20050;-72
2022/10/01 13:16:11;;;;;;;24.50;3.17;;;16.90;99.90;;;;;;4994169;28;20058;-72
2022/10/01 13:18:37;;;;;;;21.58;3.22;;;;;;;;;;4994122;28;20121;-72
2022/10/01 13:21:24;;;;;;;24.25;2.95;;;;;;;;;;4993898;28;20043;-72
2022/10/01 13:24:03;;;;;;;19.83;3.17;;;;;;;;;;4993842;28;20081;-72
2022/10/01 13:26:40;;;;;;;16.88;2.65;;;17.40;99.80;;;;;;4994145;28;20041;-72
2022/10/01 13:29:06;;;;;;;19.48;2.80;;;;;;;;;;5010055;28;20046;-72
2022/10/01 13:31:50;;;;;;;16.02;3.28;;;17.40;99.70;;;;;;4993776;28;20077;-72
2022/10/01 13:34:55;;;;;;;17.02;2.83;;;17.40;99.50;;;;;;5006656;28;20088;-73
2022/10/01 13:37:34;;;;;;;25.40;3.10;;;16.70;99.90;;;;;;4994714;28;20084;-73
2022/10/01 13:40:00;;;;;;;16.65;2.60;;;17.70;98.60;;;;;;5008756;28;20053;-73
2022/10/01 13:42:42;;;;;;;24.77;3.13;;;17.60;98.90;;;;;;4991492;28;20050;-72
2022/10/01 13:45:20;;;;;;;26.10;3.42;;;17.80;99.20;;;;;;5026746;28;20100;-73
2022/10/01 13:47:47;;;;;;;18.52;3.33;;;;;;;;;;5013262;28;20485;-73
2022/10/01 13:50:23;;;;;;;26.85;3.80;;;17.80;99.20;;;;;;5007652;28;20479;-72
2022/10/01 13:52:51;;;;;;;18.63;3.25;;;17.10;99.90;;;;;;5008041;28;20046;-73
2022/10/01 13:55:28;;;;;;;17.05;3.47;;;;;;;;;;5008442;28;20045;-73
2022/10/01 13:58:19;;;;;;;20.30;3.15;;;;;;;;;;5008599;28;20169;-73
2022/10/01 14:00:53;;;;;;;25.13;4.03;;;18.10;99.90;;;;;;5003919;28;20474;-73
2022/10/01 14:03:40;;;;;;;23.75;3.33;;;17.90;98.60;;;;;;5004621;28;20069;-73
2022/10/01 14:06:23;;;;;;;14.15;2.75;;;17.80;98.20;;;;;;5003953;28;20050;-73
2022/10/01 14:09:04;;;;;;;;;;;18.20;98.40;;;;;;5009294;28;20478;-72
2022/10/01 14:17:30;;;;;;;19.58;3.83;;;;;;;;;;4998371;28;20073;-72
2022/10/01 14:19:58;;;;;;;19.58;2.90;;;17.90;97.70;;;;;;4995985;28;20046;-72
2022/10/01 14:22:58;;;;;;;23.27;3.05;;;17.70;96.10;;;;;;4993775;28;20084;-73
2022/10/01 14:25:42;;;;;;;18.13;2.97;;;;;;;;;;4993168;28;20034;-73